createdAt,value
2018-06-28T00:02:23.583Z,20.90
2018-06-28T00:04:52.436Z,20.90
2018-06-28T00:07:21.273Z,20.90
2018-06-28T00:09:50.110Z,20.90
2018-06-28T00:12:18.963Z,20.80
2018-06-28T00:14:47.807Z,20.70
2018-06-28T00:17:16.656Z,20.70
2018-06-28T00:19:45.490Z,20.70
2018-06-28T00:22:14.329Z,20.70
2018-06-28T00:24:43.175Z,20.60
2018-06-28T00:27:12.015Z,20.60
2018-06-28T00:29:40.851Z,20.60
2018-06-28T00:32:09.699Z,20.60
2018-06-28T00:37:07.983Z,20.50
2018-06-28T00:39:36.804Z,20.50
2018-06-28T00:42:05.650Z,20.40
2018-06-28T00:44:34.480Z,20.40
2018-06-28T00:47:03.328Z,20.40
2018-06-28T00:49:32.157Z,20.40
2018-06-28T00:52:01.747Z,20.40
2018-06-28T00:54:30.584Z,20.40
2018-06-28T00:56:59.416Z,20.30
2018-06-28T00:59:28.249Z,20.30
2018-06-28T01:01:57.089Z,20.30
2018-06-28T01:04:25.978Z,20.20
2018-06-28T01:06:54.806Z,20.20
2018-06-28T01:09:23.661Z,20.20
2018-06-28T01:11:52.498Z,20.10
2018-06-28T01:14:21.332Z,20.10
2018-06-28T01:16:50.170Z,20.20
2018-06-28T01:19:19.017Z,20.10
2018-06-28T01:21:47.854Z,20.10
2018-06-28T01:24:16.686Z,20.10
2018-06-28T01:26:45.525Z,20.10
2018-06-28T01:29:14.390Z,20.00
2018-06-28T01:31:43.229Z,20.10
2018-06-28T01:34:12.069Z,20.00
2018-06-28T01:36:41.658Z,20.00
2018-06-28T01:39:10.494Z,20.00
2018-06-28T01:41:39.338Z,20.00
2018-06-28T01:44:08.176Z,20.00
2018-06-28T01:46:37.019Z,19.90
2018-06-28T01:49:05.865Z,19.90
2018-06-28T01:51:34.695Z,19.80
2018-06-28T01:54:03.541Z,19.50
2018-06-28T01:56:32.380Z,19.30
2018-06-28T01:59:01.223Z,19.10
2018-06-28T02:01:30.073Z,18.90
2018-06-28T02:03:58.922Z,18.90
2018-06-28T02:06:27.779Z,18.80
2018-06-28T02:08:56.605Z,18.80
2018-06-28T02:11:25.442Z,18.50
2018-06-28T02:13:55.031Z,18.40
2018-06-28T02:16:24.609Z,18.30
2018-06-28T02:18:53.446Z,18.30
2018-06-28T02:21:22.292Z,18.50
2018-06-28T02:23:51.126Z,18.40
2018-06-28T02:26:19.975Z,18.30
2018-06-28T02:28:48.808Z,18.30
2018-06-28T02:31:17.654Z,18.30
2018-06-28T02:33:46.487Z,18.40
2018-06-28T02:36:15.323Z,18.30
2018-06-28T02:38:44.158Z,18.40
2018-06-28T02:41:12.997Z,18.30
2018-06-28T02:43:41.848Z,18.50
2018-06-28T02:46:10.686Z,18.50
2018-06-28T02:48:39.516Z,18.60
2018-06-28T02:51:08.351Z,18.50
2018-06-28T02:53:37.188Z,18.50
2018-06-28T02:56:06.776Z,18.40
2018-06-28T02:58:36.343Z,18.40
2018-06-28T03:01:05.181Z,18.40
2018-06-28T03:03:34.030Z,18.40
2018-06-28T03:06:02.908Z,18.30
2018-06-28T03:08:31.709Z,18.40
2018-06-28T03:11:00.546Z,18.40
2018-06-28T03:13:29.382Z,18.30
2018-06-28T03:15:58.221Z,18.30
2018-06-28T03:18:27.797Z,18.40
2018-06-28T03:20:57.379Z,18.40
2018-06-28T03:23:26.221Z,18.40
2018-06-28T03:25:55.070Z,18.40
2018-06-28T03:28:23.912Z,18.30
2018-06-28T03:30:52.822Z,18.30
2018-06-28T03:33:21.599Z,18.30
2018-06-28T03:35:50.449Z,18.20
2018-06-28T03:38:19.294Z,18.20
2018-06-28T03:40:48.135Z,18.10
2018-06-28T03:43:16.979Z,18.10
2018-06-28T03:45:45.813Z,18.00
2018-06-28T03:48:15.383Z,17.90
2018-06-28T03:50:44.228Z,17.90
2018-06-28T03:53:13.063Z,17.70
2018-06-28T03:55:41.904Z,17.60
2018-06-28T03:58:10.752Z,17.60
2018-06-28T04:00:39.598Z,17.60
2018-06-28T04:03:08.439Z,17.60
2018-06-28T04:05:37.287Z,17.50
2018-06-28T04:08:06.126Z,17.40
2018-06-28T04:10:34.985Z,17.50
2018-06-28T04:13:03.848Z,17.50
2018-06-28T04:15:32.670Z,17.30
2018-06-28T04:18:01.505Z,17.40
2018-06-28T04:20:31.084Z,17.50
2018-06-28T04:22:59.937Z,17.50
2018-06-28T04:25:28.770Z,17.50
2018-06-28T04:27:58.348Z,17.50
2018-06-28T04:30:27.194Z,17.60
2018-06-28T04:32:56.036Z,17.50
2018-06-28T04:35:24.874Z,17.70
2018-06-28T04:37:53.707Z,17.80
2018-06-28T04:40:22.538Z,17.80
2018-06-28T04:42:52.110Z,17.80
2018-06-28T04:45:20.949Z,17.90
2018-06-28T04:47:49.783Z,17.90
2018-06-28T04:50:18.611Z,17.80
2018-06-28T04:52:47.459Z,17.80
2018-06-28T04:55:16.295Z,17.90
2018-06-28T04:57:45.141Z,17.90
2018-06-28T05:00:13.987Z,18.00
2018-06-28T05:02:43.572Z,18.00
2018-06-28T05:05:12.427Z,18.10
2018-06-28T05:07:41.262Z,18.20
2018-06-28T05:10:10.847Z,18.20
2018-06-28T05:12:39.681Z,18.30
2018-06-28T05:15:08.584Z,18.40
2018-06-28T05:17:38.153Z,18.50
2018-06-28T05:20:06.995Z,18.60
2018-06-28T05:22:35.840Z,18.60
2018-06-28T05:25:04.686Z,18.70
2018-06-28T05:27:33.527Z,18.70
2018-06-28T05:30:02.363Z,18.80
2018-06-28T05:32:31.198Z,18.80
2018-06-28T05:35:00.119Z,18.90
2018-06-28T05:37:28.886Z,19.00
2018-06-28T05:39:58.464Z,19.00
2018-06-28T05:42:27.310Z,19.10
2018-06-28T05:44:56.139Z,19.20
2018-06-28T05:47:24.982Z,19.20
2018-06-28T05:49:53.824Z,19.30
2018-06-28T05:52:22.663Z,19.30
2018-06-28T05:54:51.513Z,19.40
2018-06-28T05:57:21.150Z,19.40
2018-06-28T05:59:49.939Z,19.50
2018-06-28T06:02:19.521Z,19.60
2018-06-28T06:04:48.360Z,19.70
2018-06-28T06:07:17.204Z,19.80
2018-06-28T06:09:46.042Z,19.80
2018-06-28T06:12:14.884Z,19.80
2018-06-28T06:14:44.488Z,19.80
2018-06-28T06:17:13.328Z,20.00
2018-06-28T06:19:42.150Z,20.10
2018-06-28T06:22:11.002Z,20.10
2018-06-28T06:24:39.840Z,20.10
2018-06-28T06:27:08.682Z,20.10
2018-06-28T06:29:37.524Z,20.20
2018-06-28T06:32:06.359Z,20.30
2018-06-28T06:34:35.191Z,20.30
2018-06-28T06:37:04.056Z,20.40
2018-06-28T06:39:32.880Z,20.40
2018-06-28T06:42:01.723Z,20.50
2018-06-28T06:44:30.553Z,20.50
2018-06-28T06:46:59.410Z,20.50
2018-06-28T06:49:28.242Z,20.70
2018-06-28T06:51:57.827Z,20.70
2018-06-28T06:54:26.671Z,20.90
2018-06-28T06:56:55.522Z,21.00
2018-06-28T06:59:25.120Z,21.10
2018-06-28T07:01:53.926Z,21.20
2018-06-28T07:04:22.833Z,21.30
2018-06-28T07:06:51.604Z,21.30
2018-06-28T07:09:20.444Z,21.40
2018-06-28T07:11:49.276Z,21.50
2018-06-28T07:14:18.848Z,21.50
2018-06-28T07:16:47.691Z,21.70
2018-06-28T07:19:16.525Z,21.70
2018-06-28T07:21:45.360Z,21.70
2018-06-28T07:24:14.944Z,21.80
2018-06-28T07:26:43.775Z,21.90
2018-06-28T07:29:12.612Z,21.90
2018-06-28T07:31:41.454Z,21.90
2018-06-28T07:34:10.307Z,21.90
2018-06-28T07:39:09.299Z,22.00
2018-06-28T07:41:38.139Z,22.20
2018-06-28T07:44:06.985Z,22.30
2018-06-28T07:46:35.836Z,22.30
2018-06-28T07:49:04.719Z,22.40
2018-06-28T07:51:34.262Z,22.40
2018-06-28T07:54:03.097Z,22.50
2018-06-28T07:56:31.941Z,22.50
2018-06-28T07:59:00.783Z,22.60
2018-06-28T08:01:29.628Z,22.80
2018-06-28T08:03:59.218Z,22.90
2018-06-28T08:06:28.066Z,23.00
2018-06-28T08:08:56.911Z,23.00
2018-06-28T08:13:55.192Z,23.20
2018-06-28T08:16:24.034Z,23.10
2018-06-28T08:18:52.885Z,23.10
2018-06-28T08:21:21.723Z,23.10
2018-06-28T08:23:50.554Z,23.30
2018-06-28T08:26:19.397Z,23.40
2018-06-28T08:28:48.233Z,23.60
2018-06-28T08:31:17.075Z,23.70
2018-06-28T08:33:45.914Z,23.90
2018-06-28T08:36:15.491Z,24.10
2018-06-28T08:38:44.330Z,24.40
2018-06-28T08:41:13.161Z,24.60
2018-06-28T08:43:42.002Z,24.70
2018-06-28T08:46:11.575Z,24.80
2018-06-28T08:48:40.405Z,24.90
2018-06-28T08:51:09.250Z,25.00
2018-06-28T08:53:38.098Z,25.00
2018-06-28T08:56:06.938Z,24.90
2018-06-28T08:58:35.785Z,24.80
2018-06-28T09:01:04.619Z,24.60
2018-06-28T09:03:33.455Z,24.70
2018-06-28T09:06:02.294Z,24.90
2018-06-28T09:11:01.296Z,25.20
2018-06-28T09:13:30.127Z,25.30
2018-06-28T09:15:59.715Z,25.30
2018-06-28T09:18:28.558Z,25.50
2018-06-28T09:20:57.409Z,25.60
2018-06-28T09:23:26.982Z,25.60
2018-06-28T09:25:56.562Z,25.70
2018-06-28T09:28:25.391Z,25.60
2018-06-28T09:30:54.247Z,25.60
2018-06-28T09:33:23.081Z,25.70
2018-06-28T09:35:51.958Z,25.60
2018-06-28T09:38:20.772Z,25.80
2018-06-28T09:40:49.608Z,26.00
2018-06-28T09:43:18.497Z,26.10
2018-06-28T09:45:48.032Z,26.10
2018-06-28T09:48:16.888Z,26.10
2018-06-28T09:50:45.716Z,26.20
2018-06-28T09:53:14.570Z,26.40
2018-06-28T09:55:43.398Z,26.50
2018-06-28T09:58:12.243Z,26.40
2018-06-28T10:00:41.081Z,26.50
2018-06-28T10:03:10.664Z,26.60
2018-06-28T10:05:39.528Z,26.60
2018-06-28T10:08:08.370Z,26.90
2018-06-28T10:10:37.954Z,27.00
2018-06-28T10:15:36.211Z,27.30
2018-06-28T10:18:05.049Z,27.40
2018-06-28T10:20:33.882Z,27.30
2018-06-28T10:23:02.723Z,27.20
2018-06-28T10:25:32.297Z,27.10
2018-06-28T10:28:01.134Z,26.80
2018-06-28T10:30:30.707Z,26.70
2018-06-28T10:32:59.551Z,26.50
2018-06-28T10:35:28.396Z,26.60
2018-06-28T10:37:57.242Z,26.60
2018-06-28T10:40:26.072Z,26.70
2018-06-28T10:42:54.903Z,26.80
2018-06-28T10:45:23.813Z,27.00
2018-06-28T10:47:53.370Z,26.90
2018-06-28T10:50:22.275Z,26.70
2018-06-28T10:52:51.053Z,26.60
2018-06-28T10:55:19.894Z,26.40
2018-06-28T10:57:48.735Z,26.40
2018-06-28T11:00:18.314Z,26.70
2018-06-28T11:02:47.208Z,27.10
2018-06-28T11:05:16.001Z,27.20
2018-06-28T11:07:44.834Z,27.20
2018-06-28T11:10:13.678Z,27.00
2018-06-28T11:12:42.512Z,27.10
2018-06-28T11:15:11.362Z,27.20
2018-06-28T11:17:40.200Z,27.50
2018-06-28T11:20:09.038Z,27.40
2018-06-28T11:22:37.879Z,27.30
2018-06-28T11:25:06.739Z,27.30
2018-06-28T11:27:36.314Z,27.30
2018-06-28T11:30:05.172Z,27.60
2018-06-28T11:32:34.006Z,27.70
2018-06-28T11:35:02.851Z,27.90
2018-06-28T11:37:31.695Z,28.20
2018-06-28T11:40:00.535Z,28.40
2018-06-28T11:42:29.378Z,28.40
2018-06-28T11:44:58.218Z,28.30
2018-06-28T11:47:27.067Z,28.10
2018-06-28T11:49:56.712Z,28.10
2018-06-28T11:52:25.558Z,28.20
2018-06-28T11:54:54.382Z,28.10
2018-06-28T11:57:23.213Z,28.20
2018-06-28T12:02:21.485Z,28.10
2018-06-28T12:04:50.325Z,28.00
2018-06-28T12:07:19.206Z,28.20
2018-06-28T12:09:48.033Z,28.40
2018-06-28T12:12:16.886Z,28.40
2018-06-28T12:14:45.729Z,28.10
2018-06-28T12:17:14.567Z,28.00
2018-06-28T12:19:44.147Z,27.80
2018-06-28T12:22:12.982Z,27.80
2018-06-28T12:24:41.827Z,27.60
2018-06-28T12:27:10.675Z,27.30
2018-06-28T12:29:39.525Z,27.10
2018-06-28T12:32:08.380Z,27.00
2018-06-28T12:34:37.215Z,26.80
2018-06-28T12:37:06.065Z,26.60
2018-06-28T12:39:34.898Z,26.50
2018-06-28T12:42:03.816Z,26.30
2018-06-28T12:44:32.625Z,26.20
2018-06-28T12:47:01.474Z,26.10
2018-06-28T12:49:31.041Z,26.00
2018-06-28T12:52:12.454Z,26.00
2018-06-28T12:54:41.147Z,26.00
2018-06-28T12:57:09.979Z,25.90
2018-06-28T12:59:38.822Z,25.90
2018-06-28T13:02:07.661Z,25.80
2018-06-28T13:04:36.519Z,25.80
2018-06-28T13:07:05.402Z,25.90
2018-06-28T13:09:34.194Z,25.90
2018-06-28T13:12:03.032Z,26.20
2018-06-28T13:14:31.927Z,26.50
2018-06-28T13:17:00.733Z,26.90
2018-06-28T13:19:29.596Z,27.10
2018-06-28T13:21:58.433Z,27.40
2018-06-28T13:24:27.281Z,27.80
2018-06-28T13:26:56.146Z,28.20
2018-06-28T13:29:24.985Z,28.20
2018-06-28T13:31:53.831Z,28.30
2018-06-28T13:34:22.663Z,28.10
2018-06-28T13:36:52.242Z,27.90
2018-06-28T13:39:21.130Z,27.70
2018-06-28T13:41:49.977Z,27.70
2018-06-28T13:44:19.516Z,27.60
2018-06-28T13:46:48.358Z,27.50
2018-06-28T13:49:17.283Z,28.00
2018-06-28T13:51:46.063Z,28.70
2018-06-28T13:54:14.908Z,28.60
2018-06-28T13:56:43.747Z,28.50
2018-06-28T13:59:12.591Z,28.70
2018-06-28T14:01:41.431Z,28.90
2018-06-28T14:04:10.298Z,28.70
2018-06-28T14:06:39.137Z,28.60
2018-06-28T14:09:07.991Z,28.60
2018-06-28T14:11:36.832Z,28.50
2018-06-28T14:14:06.668Z,28.50
2018-06-28T14:16:35.265Z,28.30
2018-06-28T14:19:04.101Z,28.30
2018-06-28T14:21:33.694Z,28.30
2018-06-28T14:24:02.541Z,28.30
2018-06-28T14:26:31.384Z,28.60
2018-06-28T14:29:00.233Z,29.30
2018-06-28T14:31:29.066Z,29.40
2018-06-28T14:33:57.904Z,29.20
2018-06-28T14:36:26.737Z,29.30
2018-06-28T14:38:56.326Z,29.10
2018-06-28T14:41:25.171Z,29.00
2018-06-28T14:43:54.021Z,28.80
2018-06-28T14:46:22.852Z,28.80
2018-06-28T14:48:51.704Z,28.70
2018-06-28T14:51:21.287Z,28.60
2018-06-28T14:53:50.127Z,28.60
2018-06-28T14:56:18.973Z,28.20
2018-06-28T14:58:47.812Z,28.10
2018-06-28T15:01:16.662Z,28.00
2018-06-28T15:03:46.235Z,28.00
2018-06-28T15:06:15.070Z,28.10
2018-06-28T15:08:44.655Z,28.30
2018-06-28T15:11:13.511Z,28.30
2018-06-28T15:13:42.349Z,28.20
2018-06-28T15:16:11.939Z,28.10
2018-06-28T15:18:40.789Z,28.30
2018-06-28T15:21:09.641Z,28.30
2018-06-28T15:23:39.216Z,28.20
2018-06-28T15:26:08.056Z,28.20
2018-06-28T15:28:36.900Z,27.90
2018-06-28T15:31:05.765Z,27.90
2018-06-28T15:33:34.591Z,27.80
2018-06-28T15:36:03.467Z,27.80
2018-06-28T15:38:32.342Z,27.70
2018-06-28T15:41:01.145Z,27.60
2018-06-28T15:43:29.994Z,27.60
2018-06-28T15:45:59.579Z,27.50
2018-06-28T15:48:28.440Z,27.60
2018-06-28T15:50:57.277Z,27.60
2018-06-28T15:53:26.141Z,27.50
2018-06-28T15:55:55.023Z,27.40
2018-06-28T15:58:23.882Z,27.50
2018-06-28T16:00:53.472Z,27.60
2018-06-28T16:03:22.312Z,28.00
2018-06-28T16:05:51.171Z,28.20
2018-06-28T16:08:20.018Z,28.70
2018-06-28T16:10:48.856Z,29.30
2018-06-28T16:13:18.438Z,29.60
2018-06-28T16:15:47.274Z,29.70
2018-06-28T16:18:16.111Z,29.50
2018-06-28T16:20:44.947Z,29.10
2018-06-28T16:23:14.544Z,28.60
2018-06-28T16:25:44.119Z,28.40
2018-06-28T16:28:12.957Z,28.20
2018-06-28T16:30:41.830Z,28.00
2018-06-28T16:33:10.678Z,28.00
2018-06-28T16:35:39.525Z,27.80
2018-06-28T16:38:09.102Z,27.70
2018-06-28T16:40:37.947Z,27.70
2018-06-28T16:43:06.780Z,27.70
2018-06-28T16:45:35.615Z,27.70
2018-06-28T16:48:05.207Z,27.60
2018-06-28T16:50:34.044Z,27.70
2018-06-28T16:53:02.888Z,27.60
2018-06-28T16:55:31.723Z,27.60
2018-06-28T16:58:00.571Z,27.60
2018-06-28T17:00:30.153Z,27.50
2018-06-28T17:02:58.993Z,27.50
2018-06-28T17:05:27.831Z,27.40
2018-06-28T17:07:56.665Z,27.30
2018-06-28T17:10:25.501Z,27.40
2018-06-28T17:12:54.346Z,27.30
2018-06-28T17:15:23.190Z,27.20
2018-06-28T17:17:52.024Z,27.30
2018-06-28T17:20:21.705Z,27.30
2018-06-28T17:25:19.884Z,27.20
2018-06-28T17:27:48.728Z,27.20
2018-06-28T17:30:17.574Z,27.20
2018-06-28T17:32:46.426Z,27.10
2018-06-28T17:35:15.246Z,27.10
2018-06-28T17:37:44.086Z,27.00
2018-06-28T17:40:13.044Z,27.00
2018-06-28T17:42:41.888Z,26.90
2018-06-28T17:45:10.651Z,26.90
2018-06-28T17:47:39.499Z,26.80
2018-06-28T17:50:08.333Z,26.80
2018-06-28T17:52:37.244Z,26.70
2018-06-28T17:55:06.005Z,26.70
2018-06-28T17:57:34.923Z,26.60
2018-06-28T18:00:03.691Z,26.50
2018-06-28T18:02:32.535Z,26.40
2018-06-28T18:05:01.464Z,26.30
2018-06-28T18:07:30.216Z,26.20
2018-06-28T18:09:59.061Z,26.10
2018-06-28T18:12:27.915Z,26.00
2018-06-28T18:14:57.512Z,25.90
2018-06-28T18:17:26.375Z,25.90
2018-06-28T18:19:55.214Z,25.70
2018-06-28T18:22:24.806Z,25.50
2018-06-28T18:24:54.390Z,25.30
2018-06-28T18:27:23.237Z,25.10
2018-06-28T18:29:52.082Z,25.00
2018-06-28T18:32:20.920Z,24.90
2018-06-28T18:34:49.777Z,24.70
2018-06-28T18:37:18.628Z,24.70
2018-06-28T18:39:47.520Z,24.60
2018-06-28T18:42:16.338Z,24.50
2018-06-28T18:44:45.212Z,24.30
2018-06-28T18:47:14.803Z,24.30
2018-06-28T18:49:43.701Z,24.30
2018-06-28T18:52:12.499Z,24.30
2018-06-28T18:54:42.103Z,24.10
2018-06-28T18:57:10.964Z,24.20
2018-06-28T18:59:39.809Z,24.00
2018-06-28T19:02:08.657Z,23.90
2018-06-28T19:04:37.499Z,23.90
2018-06-28T19:07:06.376Z,23.90
2018-06-28T19:09:35.184Z,23.90
2018-06-28T19:12:04.041Z,23.90
2018-06-28T19:14:38.761Z,23.90
2018-06-28T19:17:07.595Z,23.80
2018-06-28T19:19:36.441Z,23.80
2018-06-28T19:22:08.172Z,23.90
2018-06-28T19:24:37.040Z,23.80
2018-06-28T19:27:05.875Z,23.80
2018-06-28T19:29:34.770Z,23.80
2018-06-28T19:32:05.498Z,23.80
2018-06-28T19:34:34.345Z,23.90
2018-06-28T19:37:03.205Z,23.80
2018-06-28T19:39:32.030Z,23.70
2018-06-28T19:42:00.992Z,23.70
2018-06-28T19:44:30.574Z,23.70
2018-06-28T19:46:59.450Z,23.70
2018-06-28T19:49:28.281Z,23.60
2018-06-28T19:52:00.059Z,23.60
2018-06-28T19:54:28.946Z,23.50
2018-06-28T19:56:57.758Z,23.30
2018-06-28T19:59:27.399Z,23.30
2018-06-28T20:01:59.945Z,23.20
2018-06-28T20:04:28.798Z,23.10
2018-06-28T20:06:57.637Z,23.00
2018-06-28T20:09:27.217Z,22.90
2018-06-28T20:11:56.067Z,22.90
2018-06-28T20:14:24.950Z,22.90
2018-06-28T20:16:59.982Z,22.80
2018-06-28T20:19:29.719Z,22.80
2018-06-28T20:21:58.754Z,22.80
2018-06-28T20:24:28.189Z,22.80
2018-06-28T20:26:57.792Z,22.80
2018-06-28T20:29:32.618Z,22.70
2018-06-28T20:32:01.511Z,22.70
2018-06-28T20:34:30.355Z,22.70
2018-06-28T20:36:59.190Z,22.70
2018-06-28T20:39:28.203Z,22.70
2018-06-28T20:41:56.871Z,22.70
2018-06-28T20:44:25.723Z,22.60
2018-06-28T20:46:54.567Z,22.50
2018-06-28T20:49:23.405Z,22.50
2018-06-28T20:51:52.241Z,22.60
2018-06-28T20:54:21.130Z,22.50
2018-06-28T20:56:49.935Z,22.50
2018-06-28T20:59:19.536Z,22.50
2018-06-28T21:01:48.372Z,22.50
2018-06-28T21:04:17.220Z,22.30
2018-06-28T21:09:15.546Z,22.20
2018-06-28T21:11:44.386Z,22.10
2018-06-28T21:14:13.214Z,22.20
2018-06-28T21:16:42.138Z,22.20
2018-06-28T21:19:10.908Z,22.10
2018-06-28T21:21:39.743Z,22.10
2018-06-28T21:24:08.576Z,22.20
2018-06-28T21:26:37.474Z,22.20
2018-06-28T21:29:06.274Z,22.10
2018-06-28T21:31:35.104Z,22.10
2018-06-28T21:34:03.956Z,22.10
2018-06-28T21:36:32.858Z,22.20
2018-06-28T21:39:01.660Z,22.20
2018-06-28T21:41:30.501Z,22.30
2018-06-28T21:43:59.348Z,22.30
2018-06-28T21:46:28.182Z,22.20
2018-06-28T21:48:57.057Z,22.20
2018-06-28T21:51:25.913Z,22.30
2018-06-28T21:53:54.756Z,22.30
2018-06-28T21:56:23.614Z,22.30
2018-06-28T21:58:52.496Z,22.40
2018-06-28T22:01:21.341Z,22.40
2018-06-28T22:03:50.189Z,22.40
2018-06-28T22:06:19.018Z,22.40
2018-06-28T22:08:47.869Z,22.50
2018-06-28T22:11:16.714Z,22.50
2018-06-28T22:13:45.547Z,22.50
2018-06-28T22:16:14.392Z,22.50
2018-06-28T22:18:43.228Z,22.50
2018-06-28T22:21:12.075Z,22.30
2018-06-28T22:23:41.659Z,22.50
2018-06-28T22:26:10.591Z,22.40
2018-06-28T22:28:39.353Z,22.30
2018-06-28T22:31:08.282Z,22.20
2018-06-28T22:33:37.039Z,22.20
2018-06-28T22:36:05.903Z,22.10
2018-06-28T22:38:34.734Z,22.10
2018-06-28T22:41:04.310Z,22.00
2018-06-28T22:43:33.149Z,22.10
2018-06-28T22:46:01.995Z,22.10
2018-06-28T22:48:30.842Z,22.10
2018-06-28T22:50:59.688Z,22.10
2018-06-28T22:53:28.529Z,22.00
2018-06-28T22:55:57.377Z,22.00
2018-06-28T22:58:26.209Z,22.10
2018-06-28T23:00:55.059Z,22.10
2018-06-28T23:03:23.894Z,22.10
2018-06-28T23:05:52.741Z,22.10
2018-06-28T23:10:51.749Z,22.10
2018-06-28T23:13:21.337Z,22.10
2018-06-28T23:15:50.177Z,22.00
2018-06-28T23:18:19.759Z,22.10
2018-06-28T23:20:49.246Z,22.00
2018-06-28T23:23:18.077Z,22.10
2018-06-28T23:25:47.662Z,22.10
2018-06-28T23:28:16.503Z,22.10
2018-06-28T23:30:45.335Z,22.10
2018-06-28T23:33:14.179Z,22.00
2018-06-28T23:35:43.023Z,22.00
2018-06-28T23:38:11.865Z,22.10
2018-06-28T23:40:40.706Z,22.10
2018-06-28T23:43:10.286Z,21.90
2018-06-28T23:45:39.135Z,21.80
2018-06-28T23:48:07.984Z,21.70
2018-06-28T23:50:36.819Z,21.70
2018-06-28T23:53:05.658Z,21.80
2018-06-28T23:55:34.517Z,21.90
2018-06-28T23:58:03.346Z,21.80
